Time;durP1;ratioP1;P1;durP2;ratioP2;P2;SDS_P1;SDS_P2;PMS_P1;PMS_P2;Temp;Humidity;BMP_temperature;BMP_pressure;BME280_temperature;BME280_humidity;BME280_pressure;Samples;Min_cycle;Max_cycle;Signal;HPM_P1;HPM_P2
2021/07/25 00:00:00;;;;;;;9.63;7.63;;;19.40;99.90;;;;;;5000913;28;20028;-78
2021/07/25 00:02:26;;;;;;;9.07;8.15;;;19.40;99.90;;;;;;5035922;28;20029;-76
2021/07/25 00:04:52;;;;;;;10.75;7.60;;;19.40;99.90;;;;;;5034863;28;20068;-78
2021/07/25 00:07:18;;;;;;;13.48;8.15;;;19.40;99.90;;;;;;5017882;28;20017;-77
2021/07/25 00:09:43;;;;;;;9.70;8.18;;;19.40;99.90;;;;;;5030264;28;20072;-74
2021/07/25 00:12:11;;;;;;;8.75;7.80;;;19.40;99.90;;;;;;5019031;28;20036;-75
2021/07/25 00:14:36;;;;;;;8.55;7.38;;;19.40;99.90;;;;;;5020000;28;20037;-74
2021/07/25 00:17:02;;;;;;;9.98;7.88;;;19.50;99.90;;;;;;5038419;28;20079;-75
2021/07/25 00:19:27;;;;;;;9.77;7.75;;;19.60;99.90;;;;;;5039446;28;20029;-75
2021/07/25 00:21:54;;;;;;;8.68;7.78;;;19.60;99.90;;;;;;5014916;28;20025;-75
2021/07/25 00:24:24;;;;;;;9.05;7.40;;;19.60;99.90;;;;;;5024753;28;20021;-76
2021/07/25 00:26:50;;;;;;;13.90;7.53;;;19.70;99.90;;;;;;5049576;28;20047;-75
2021/07/25 00:29:16;;;;;;;9.85;7.70;;;19.70;99.90;;;;;;5018512;28;20080;-75
2021/07/25 00:31:42;;;;;;;8.75;7.32;;;19.70;99.90;;;;;;5030676;28;20035;-75
2021/07/25 00:34:08;;;;;;;9.35;7.40;;;19.80;99.90;;;;;;5033315;28;20029;-74
2021/07/25 00:36:33;;;;;;;8.38;7.47;;;19.70;99.90;;;;;;5033110;28;20542;-75
2021/07/25 00:38:59;;;;;;;9.68;7.80;;;19.80;99.90;;;;;;5034747;28;20021;-78
2021/07/25 00:41:25;;;;;;;12.30;8.35;;;19.70;99.90;;;;;;5035463;28;20028;-78
2021/07/25 00:43:50;;;;;;;10.68;7.68;;;19.60;99.90;;;;;;5033083;28;20040;-76
2021/07/25 00:46:17;;;;;;;11.57;9.43;;;19.60;99.90;;;;;;5032596;28;20055;-77
2021/07/25 00:48:45;;;;;;;9.95;8.98;;;19.60;99.90;;;;;;5007247;28;20025;-75
2021/07/25 00:51:11;;;;;;;11.15;9.60;;;19.60;99.90;;;;;;5028692;28;20099;-74
2021/07/25 00:53:39;;;;;;;12.98;8.65;;;19.60;99.90;;;;;;5032965;28;20088;-74
2021/07/25 00:56:08;;;;;;;9.23;8.18;;;19.50;99.90;;;;;;5032573;28;20072;-76
2021/07/25 00:58:37;;;;;;;9.88;8.88;;;19.50;99.90;;;;;;5033007;28;20132;-76
2021/07/25 01:01:03;;;;;;;10.95;9.23;;;19.50;99.90;;;;;;5014952;28;20029;-76
2021/07/25 01:03:39;;;;;;;11.60;8.40;;;19.50;99.90;;;;;;5015531;28;20033;-79
2021/07/25 01:06:14;;;;;;;13.27;8.23;;;19.50;99.90;;;;;;5033750;28;20096;-79
2021/07/25 01:08:52;;;;;;;9.13;8.18;;;19.50;99.90;;;;;;5033126;28;20021;-78
2021/07/25 01:11:19;;;;;;;9.32;8.43;;;19.60;99.90;;;;;;5016262;28;20081;-79
2021/07/25 01:13:48;;;;;;;13.07;9.48;;;19.60;99.90;;;;;;5015894;28;20116;-78
2021/07/25 01:16:14;;;;;;;10.95;7.97;;;19.50;99.90;;;;;;5032915;28;20021;-79
2021/07/25 01:18:47;;;;;;;13.30;8.13;;;19.50;99.90;;;;;;5033000;28;20033;-78
2021/07/25 01:21:18;;;;;;;10.35;7.47;;;19.60;99.90;;;;;;5012240;28;20113;-79
2021/07/25 01:23:44;;;;;;;10.48;8.75;;;19.60;99.90;;;;;;5013760;28;20032;-79
2021/07/25 01:26:13;;;;;;;8.73;7.45;;;19.60;99.90;;;;;;5012166;28;20026;-79
2021/07/25 01:28:43;;;;;;;8.73;7.93;;;19.50;99.90;;;;;;5013078;28;20045;-79
2021/07/25 01:31:17;;;;;;;10.40;7.90;;;19.50;99.90;;;;;;5013331;28;20018;-79
2021/07/25 01:33:44;;;;;;;10.13;9.05;;;19.50;99.90;;;;;;5013583;28;20022;-79
2021/07/25 01:36:11;;;;;;;11.95;8.95;;;19.40;99.90;;;;;;5011652;28;20402;-78
2021/07/25 01:38:37;;;;;;;11.07;9.07;;;19.40;99.90;;;;;;5011848;28;20029;-79
2021/07/25 01:41:10;;;;;;;8.70;7.75;;;19.40;99.90;;;;;;5014078;28;20026;-80
2021/07/25 01:43:41;;;;;;;12.35;8.07;;;19.30;99.90;;;;;;5014251;28;20067;-79
2021/07/25 01:46:08;;;;;;;12.98;9.10;;;19.30;99.90;;;;;;5015143;28;20018;-79
2021/07/25 01:48:36;;;;;;;10.52;7.95;;;19.30;99.90;;;;;;5006620;28;20021;-79
2021/07/25 01:51:02;;;;;;;8.52;7.60;;;19.30;99.90;;;;;;5015014;28;20051;-78
2021/07/25 01:53:28;;;;;;;9.02;8.13;;;19.30;99.90;;;;;;5032806;28;20485;-79
2021/07/25 01:55:53;;;;;;;8.32;7.28;;;19.30;99.90;;;;;;5032889;28;20029;-78
2021/07/25 01:58:19;;;;;;;11.10;7.07;;;19.30;99.90;;;;;;5014918;28;20021;-78
2021/07/25 02:00:45;;;;;;;10.88;7.28;;;19.20;99.90;;;;;;5032353;28;20036;-78
2021/07/25 02:03:10;;;;;;;10.70;7.50;;;19.30;99.90;;;;;;5032500;28;20547;-78
2021/07/25 02:05:38;;;;;;;8.40;6.80;;;19.30;99.90;;;;;;5032281;28;20032;-77
2021/07/25 02:08:05;;;;;;;10.80;7.32;;;19.30;99.90;;;;;;5014501;28;20052;-79
2021/07/25 02:10:30;;;;;;;8.50;7.68;;;19.20;99.90;;;;;;5015445;28;20041;-80
2021/07/25 02:12:57;;;;;;;10.95;7.68;;;19.20;99.90;;;;;;5033858;28;20112;-79
2021/07/25 02:15:22;;;;;;;8.18;7.35;;;19.20;99.90;;;;;;5033853;28;20029;-79
2021/07/25 02:17:48;;;;;;;8.35;7.32;;;19.20;99.90;;;;;;5015238;28;20615;-78
2021/07/25 02:20:13;;;;;;;10.68;8.75;;;19.10;99.90;;;;;;5027241;28;20029;-78
2021/07/25 02:22:39;;;;;;;8.85;8.02;;;19.10;99.90;;;;;;5011765;28;20120;-79
2021/07/25 02:25:05;;;;;;;12.80;7.43;;;19.10;99.90;;;;;;5021697;28;20006;-79
2021/07/25 02:27:31;;;;;;;11.88;9.07;;;19.00;99.90;;;;;;5033771;28;20038;-78
2021/07/25 02:29:56;;;;;;;10.20;7.63;;;19.00;99.90;;;;;;5013587;28;20036;-78
2021/07/25 02:32:25;;;;;;;10.98;8.15;;;19.00;99.90;;;;;;5012046;28;20437;-78
2021/07/25 02:34:50;;;;;;;8.13;7.32;;;19.00;99.90;;;;;;5011770;28;20029;-79
2021/07/25 02:37:16;;;;;;;10.18;7.90;;;19.00;99.90;;;;;;5011950;28;20026;-79
2021/07/25 02:39:41;;;;;;;11.20;7.55;;;19.00;99.90;;;;;;5011991;28;20026;-78
2021/07/25 02:42:07;;;;;;;8.75;7.95;;;19.00;99.90;;;;;;5012087;28;20030;-78
2021/07/25 02:44:33;;;;;;;10.30;7.85;;;19.20;99.90;;;;;;5012009;28;20026;-79
2021/07/25 02:46:59;;;;;;;9.15;7.30;;;19.20;99.90;;;;;;5020994;28;20374;-78
2021/07/25 02:49:25;;;;;;;8.98;7.85;;;19.20;99.90;;;;;;5008838;28;20061;-79
2021/07/25 02:51:50;;;;;;;8.95;8.07;;;19.10;99.90;;;;;;5014647;28;20029;-78
2021/07/25 02:54:16;;;;;;;9.25;7.53;;;19.20;99.90;;;;;;5014250;28;20068;-81
2021/07/25 02:56:42;;;;;;;9.98;7.63;;;19.10;99.90;;;;;;5014260;28;20026;-78
2021/07/25 02:59:07;;;;;;;9.15;8.30;;;19.10;99.90;;;;;;5031825;28;20368;-79
2021/07/25 03:01:33;;;;;;;11.77;8.07;;;19.10;99.90;;;;;;5028612;28;20037;-79
2021/07/25 03:03:59;;;;;;;9.70;8.63;;;19.20;99.90;;;;;;5031431;28;20083;-79
2021/07/25 03:06:24;;;;;;;12.75;9.00;;;19.20;99.90;;;;;;5031514;28;20025;-78
2021/07/25 03:08:50;;;;;;;9.77;8.52;;;19.20;99.90;;;;;;5031339;28;20367;-79
2021/07/25 03:11:16;;;;;;;10.30;8.50;;;19.10;99.90;;;;;;5031578;28;20136;-78
2021/07/25 03:13:41;;;;;;;9.23;8.30;;;19.10;99.90;;;;;;5033206;28;20053;-79
2021/07/25 03:16:08;;;;;;;11.07;8.90;;;19.10;99.90;;;;;;5017310;28;20032;-79
2021/07/25 03:18:34;;;;;;;12.30;9.05;;;19.10;99.90;;;;;;5017415;28;20029;-78
2021/07/25 03:21:02;;;;;;;11.45;10.23;;;19.10;99.90;;;;;;5035659;28;20381;-79
2021/07/25 03:23:28;;;;;;;9.27;8.27;;;19.10;99.90;;;;;;5017788;28;20086;-79
2021/07/25 03:25:53;;;;;;;9.63;8.50;;;19.10;99.90;;;;;;5035189;28;20100;-79
2021/07/25 03:28:19;;;;;;;9.80;8.73;;;19.10;99.90;;;;;;5010320;28;20026;-79
2021/07/25 03:30:46;;;;;;;9.88;8.93;;;19.00;99.90;;;;;;5013766;28;20025;-79
2021/07/25 03:33:12;;;;;;;12.15;9.10;;;19.00;99.90;;;;;;5036486;28;20028;-79
2021/07/25 03:35:38;;;;;;;10.32;8.93;;;19.00;99.90;;;;;;5034300;28;20025;-78
2021/07/25 03:38:03;;;;;;;10.05;8.95;;;19.10;99.90;;;;;;5034930;28;20104;-78
2021/07/25 03:40:29;;;;;;;12.23;9.23;;;19.20;99.90;;;;;;5035101;28;20366;-78
2021/07/25 03:42:55;;;;;;;10.45;9.52;;;19.10;99.90;;;;;;5035153;28;20644;-79
2021/07/25 03:45:21;;;;;;;13.10;8.90;;;19.00;99.90;;;;;;5035055;28;20466;-78
2021/07/25 03:47:47;;;;;;;12.00;9.63;;;18.90;99.90;;;;;;5027230;28;20100;-79
2021/07/25 03:50:13;;;;;;;10.95;9.70;;;18.90;99.90;;;;;;5016818;28;20109;-79
2021/07/25 03:52:38;;;;;;;10.55;9.43;;;18.90;99.90;;;;;;5018524;28;20089;-79
2021/07/25 03:55:05;;;;;;;11.13;9.35;;;18.90;99.90;;;;;;5018203;28;20049;-79
2021/07/25 03:57:35;;;;;;;14.27;9.45;;;18.80;99.90;;;;;;5034568;28;20116;-79
2021/07/25 04:00:02;;;;;;;11.43;9.63;;;18.80;99.90;;;;;;5034695;28;20037;-79
2021/07/25 04:02:28;;;;;;;11.57;9.32;;;18.80;99.90;;;;;;5016680;28;20128;-79
2021/07/25 04:04:53;;;;;;;10.98;9.00;;;18.70;99.90;;;;;;5034750;28;20108;-79
2021/07/25 04:07:19;;;;;;;11.30;9.30;;;18.80;99.90;;;;;;5017489;28;20095;-79
2021/07/25 04:09:45;;;;;;;12.25;9.05;;;18.70;99.90;;;;;;5042367;22;20455;-76
2021/07/25 04:12:10;;;;;;;11.32;10.18;;;18.80;99.90;;;;;;5034957;28;20477;-75
2021/07/25 04:14:36;;;;;;;11.40;9.50;;;18.70;99.90;;;;;;5036759;28;20025;-75
2021/07/25 04:17:02;;;;;;;10.10;9.18;;;18.80;99.90;;;;;;5037935;28;20029;-75
2021/07/25 04:19:28;;;;;;;12.55;9.23;;;18.80;99.90;;;;;;5032803;28;20056;-76
2021/07/25 04:22:01;;;;;;;11.70;9.20;;;18.80;99.90;;;;;;5016546;28;20030;-77
2021/07/25 04:24:27;;;;;;;11.45;9.00;;;18.90;99.90;;;;;;5014509;28;20080;-77
2021/07/25 04:26:53;;;;;;;11.05;9.27;;;18.90;99.90;;;;;;4996642;28;20018;-74
2021/07/25 04:29:19;;;;;;;11.98;8.35;;;19.00;99.90;;;;;;4996762;28;20426;-75
2021/07/25 04:31:45;;;;;;;9.00;8.13;;;19.00;99.90;;;;;;5014118;28;20032;-75
2021/07/25 04:34:11;;;;;;;10.80;7.55;;;19.10;99.90;;;;;;5013863;28;20029;-75
2021/07/25 04:36:37;;;;;;;10.60;9.02;;;19.00;99.90;;;;;;5014451;28;20427;-75
2021/07/25 04:39:07;;;;;;;11.50;8.73;;;19.10;99.90;;;;;;4996844;28;20053;-75
2021/07/25 04:41:54;;;;;;;9.00;8.00;;;19.00;99.90;;;;;;5013712;28;20490;-76
2021/07/25 04:44:32;;;;;;;10.18;9.07;;;19.10;99.90;;;;;;4995861;28;20030;-75
2021/07/25 04:47:03;;;;;;;8.30;7.18;;;19.10;99.90;;;;;;5013414;28;20030;-74
2021/07/25 04:49:37;;;;;;;9.52;7.85;;;19.10;99.90;;;;;;4996252;28;20468;-76
2021/07/25 04:52:03;;;;;;;9.10;8.20;;;19.10;99.90;;;;;;5014565;28;20378;-76
2021/07/25 04:54:34;;;;;;;8.23;7.43;;;19.10;99.90;;;;;;5017871;28;20041;-75
2021/07/25 04:57:04;;;;;;;8.70;7.50;;;19.10;99.90;;;;;;5028507;28;20053;-75
2021/07/25 04:59:30;;;;;;;8.50;6.13;;;19.10;99.90;;;;;;5014050;28;20048;-75
2021/07/25 05:02:03;;;;;;;6.43;5.80;;;19.10;99.90;;;;;;5013146;28;20432;-75
2021/07/25 05:04:29;;;;;;;11.60;6.80;;;19.20;99.90;;;;;;5013233;28;20033;-75
2021/07/25 05:06:56;;;;;;;7.97;6.35;;;19.20;99.90;;;;;;5016231;28;20026;-76
2021/07/25 05:09:22;;;;;;;11.65;6.32;;;19.20;99.90;;;;;;5013305;28;20117;-75
2021/07/25 05:12:14;;;;;;;6.22;5.65;;;19.30;99.90;;;;;;5014864;28;20048;-75
2021/07/25 05:14:54;;;;;;;6.05;5.43;;;19.30;99.90;;;;;;5013972;28;20432;-73
2021/07/25 05:17:31;;;;;;;7.13;4.70;;;19.30;99.90;;;;;;5017590;28;20026;-75
2021/07/25 05:20:02;;;;;;;6.03;5.32;;;19.30;99.90;;;;;;5017018;28;20018;-75
2021/07/25 05:22:59;;;;;;;7.68;6.00;;;19.40;99.90;;;;;;5010637;28;20517;-75
2021/07/25 05:25:27;;;;;;;6.13;5.00;;;19.50;99.90;;;;;;5013065;28;20022;-76
2021/07/25 05:27:53;;;;;;;7.20;5.63;;;19.40;99.90;;;;;;5015658;28;20509;-74
2021/07/25 05:30:21;;;;;;;5.80;5.25;;;19.40;99.90;;;;;;4998415;28;20025;-75
2021/07/25 05:32:47;;;;;;;8.10;5.72;;;19.40;99.90;;;;;;5017584;28;20026;-76
2021/07/25 05:35:14;;;;;;;5.90;5.28;;;19.50;99.90;;;;;;5021240;28;20061;-75
2021/07/25 05:37:40;;;;;;;5.93;5.32;;;19.60;99.90;;;;;;4996614;28;20030;-75
2021/07/25 05:40:07;;;;;;;5.93;5.43;;;19.60;99.90;;;;;;5013261;28;20025;-75
2021/07/25 05:42:32;;;;;;;5.57;5.07;;;19.50;99.90;;;;;;4996712;28;20029;-75
2021/07/25 05:44:58;;;;;;;7.05;5.20;;;19.50;99.90;;;;;;5013026;28;20034;-75
2021/07/25 05:47:24;;;;;;;5.68;5.18;;;19.50;99.90;;;;;;4994671;28;20113;-75
2021/07/25 05:49:49;;;;;;;9.80;5.20;;;19.50;99.90;;;;;;5012593;28;20032;-75
2021/07/25 05:52:15;;;;;;;6.60;5.40;;;19.60;99.90;;;;;;5012976;28;20022;-76
2021/07/25 05:54:41;;;;;;;9.65;6.88;;;19.60;99.90;;;;;;5013492;28;20378;-75
2021/07/25 05:57:08;;;;;;;6.93;5.53;;;19.60;99.90;;;;;;4995754;28;20021;-75
2021/07/25 05:59:34;;;;;;;7.03;6.20;;;19.80;99.90;;;;;;5013112;28;20029;-75
2021/07/25 06:02:03;;;;;;;7.28;5.82;;;19.70;99.90;;;;;;4995906;28;20481;-75
2021/07/25 06:04:29;;;;;;;9.98;7.85;;;19.70;99.90;;;;;;4995788;28;20038;-75
2021/07/25 06:06:56;;;;;;;7.65;6.95;;;19.70;99.90;;;;;;5012353;28;20506;-75
2021/07/25 06:09:22;;;;;;;7.90;7.00;;;19.60;99.90;;;;;;5013038;28;20072;-74
2021/07/25 06:11:48;;;;;;;8.18;7.38;;;19.80;99.90;;;;;;4995775;28;20029;-75
2021/07/25 06:14:13;;;;;;;7.57;6.75;;;20.10;99.90;;;;;;5013051;28;20104;-75
2021/07/25 06:16:39;;;;;;;10.75;6.47;;;20.40;99.90;;;;;;5012811;28;20049;-75
2021/07/25 06:19:04;;;;;;;15.52;7.50;;;20.70;99.90;;;;;;5012643;28;20025;-75
2021/07/25 06:21:30;;;;;;;8.10;6.50;;;20.80;99.90;;;;;;5012744;28;20026;-75
2021/07/25 06:23:56;;;;;;;9.63;7.45;;;20.90;99.90;;;;;;5013420;28;20026;-75
2021/07/25 06:26:25;;;;;;;9.80;8.10;;;20.80;99.90;;;;;;5013032;28;20022;-75
2021/07/25 06:28:51;;;;;;;7.15;6.55;;;20.70;99.90;;;;;;4994515;28;20065;-75
2021/07/25 06:31:17;;;;;;;10.15;7.43;;;20.80;99.90;;;;;;5024111;28;20029;-75
2021/07/25 06:33:43;;;;;;;8.82;6.55;;;20.90;99.90;;;;;;4994908;28;20022;-75
2021/07/25 06:36:10;;;;;;;7.32;6.28;;;21.10;99.90;;;;;;5012703;28;20057;-75
2021/07/25 06:38:37;;;;;;;10.02;5.82;;;21.40;99.90;;;;;;5014142;28;20026;-75
2021/07/25 06:41:03;;;;;;;7.60;6.15;;;21.40;99.90;;;;;;5013461;28;20034;-75
2021/07/25 06:43:29;;;;;;;6.03;5.53;;;21.50;99.90;;;;;;5012900;28;20037;-75
2021/07/25 06:45:54;;;;;;;6.47;4.68;;;21.40;99.90;;;;;;5013248;28;20333;-74
2021/07/25 06:48:25;;;;;;;6.70;5.65;;;21.50;99.90;;;;;;5014462;28;20453;-75
2021/07/25 06:50:53;;;;;;;6.38;5.60;;;22.10;99.90;;;;;;5016810;28;20026;-76
2021/07/25 06:53:20;;;;;;;6.93;5.72;;;22.50;99.90;;;;;;5000481;28;20046;-75
2021/07/25 06:55:48;;;;;;;9.85;6.07;;;23.00;99.90;;;;;;4997234;28;20030;-75
2021/07/25 06:58:13;;;;;;;5.80;5.20;;;23.30;99.90;;;;;;5015724;28;20509;-77
2021/07/25 07:00:39;;;;;;;6.80;5.13;;;24.00;99.90;;;;;;5017241;28;20030;-75
2021/07/25 07:03:05;;;;;;;6.97;5.18;;;24.10;99.90;;;;;;5017115;28;20100;-77
2021/07/25 07:05:32;;;;;;;5.82;5.30;;;24.60;99.90;;;;;;5017060;28;20533;-76
2021/07/25 07:08:06;;;;;;;4.32;3.92;;;24.80;99.90;;;;;;5007499;28;20034;-76
2021/07/25 07:10:36;;;;;;;6.15;4.70;;;24.00;99.90;;;;;;4997434;28;20041;-76
2021/07/25 07:13:06;;;;;;;6.43;4.57;;;24.60;99.90;;;;;;4996766;28;20030;-76
2021/07/25 07:15:33;;;;;;;4.75;3.95;;;24.60;99.90;;;;;;4997274;28;20026;-75
2021/07/25 07:17:59;;;;;;;8.32;5.00;;;24.80;99.90;;;;;;4980012;28;20124;-76
2021/07/25 07:20:26;;;;;;;6.32;4.93;;;24.50;99.90;;;;;;4997118;28;20023;-76
2021/07/25 07:22:58;;;;;;;6.93;4.18;;;25.00;99.90;;;;;;5014101;28;20034;-76
2021/07/25 07:25:26;;;;;;;7.45;4.75;;;25.00;99.90;;;;;;5000053;28;20025;-75
2021/07/25 07:27:52;;;;;;;5.22;4.72;;;24.80;99.90;;;;;;5016162;28;20029;-76
2021/07/25 07:30:18;;;;;;;6.00;4.82;;;24.60;99.90;;;;;;5005104;28;20114;-76
2021/07/25 07:32:44;;;;;;;5.80;5.22;;;24.50;99.90;;;;;;4981504;28;20291;-77
2021/07/25 07:35:10;;;;;;;7.20;5.63;;;24.00;99.90;;;;;;4981111;28;20022;-76
2021/07/25 07:37:36;;;;;;;6.88;5.22;;;24.10;99.90;;;;;;4997577;28;20074;-76
2021/07/25 07:40:03;;;;;;;6.32;5.00;;;24.30;99.90;;;;;;4996722;28;20501;-75
2021/07/25 07:42:29;;;;;;;5.53;4.95;;;24.30;99.90;;;;;;4996212;28;20034;-75
2021/07/25 07:44:54;;;;;;;6.28;5.43;;;24.20;99.90;;;;;;4995356;28;20037;-75
2021/07/25 07:47:22;;;;;;;7.97;5.90;;;24.00;99.90;;;;;;5012368;28;20033;-75
2021/07/25 07:49:48;;;;;;;7.25;5.00;;;23.50;99.90;;;;;;5015060;28;20445;-76
2021/07/25 07:52:14;;;;;;;11.35;5.25;;;23.20;99.90;;;;;;5014186;28;20084;-77
2021/07/25 07:54:40;;;;;;;6.32;5.53;;;23.70;99.90;;;;;;5014705;28;20026;-77
2021/07/25 07:57:05;;;;;;;5.85;5.25;;;23.80;99.90;;;;;;5009899;28;20030;-76
2021/07/25 07:59:31;;;;;;;6.68;5.30;;;23.60;99.90;;;;;;4995177;28;20471;-76
2021/07/25 08:01:57;;;;;;;8.27;4.95;;;23.90;99.90;;;;;;4995528;28;20022;-76
2021/07/25 08:04:23;;;;;;;5.85;4.95;;;23.60;99.90;;;;;;4995099;28;20455;-76
2021/07/25 08:06:48;;;;;;;7.30;4.88;;;23.80;99.90;;;;;;5010339;28;20030;-76
2021/07/25 08:09:14;;;;;;;5.68;4.95;;;23.40;99.90;;;;;;5023479;28;20017;-75
2021/07/25 08:11:43;;;;;;;8.00;4.57;;;23.30;99.90;;;;;;5022342;28;20450;-76
2021/07/25 08:14:11;;;;;;;5.78;5.00;;;23.60;99.90;;;;;;5015075;28;20064;-76
2021/07/25 08:16:37;;;;;;;4.97;4.13;;;23.80;99.90;;;;;;5015265;28;20026;-76
2021/07/25 08:19:03;;;;;;;8.90;5.30;;;23.80;99.90;;;;;;5014701;28;20076;-76
2021/07/25 08:21:28;;;;;;;5.00;4.50;;;23.90;99.90;;;;;;5014557;28;20030;-76
2021/07/25 08:23:54;;;;;;;7.22;5.57;;;23.70;99.90;;;;;;5015784;28;20117;-75
2021/07/25 08:26:19;;;;;;;6.05;5.35;;;23.60;99.90;;;;;;5015925;28;20080;-76
2021/07/25 08:28:45;;;;;;;7.63;4.78;;;23.40;99.90;;;;;;5014342;28;20436;-78
2021/07/25 08:31:10;;;;;;;4.57;4.18;;;23.50;99.90;;;;;;5014769;28;20026;-75
2021/07/25 08:33:36;;;;;;;4.95;4.30;;;23.30;99.90;;;;;;5015259;28;20021;-75
2021/07/25 08:36:02;;;;;;;5.72;5.18;;;23.30;99.90;;;;;;5017775;28;20113;-76
2021/07/25 08:38:28;;;;;;;11.00;4.65;;;23.30;99.90;;;;;;5019804;28;20100;-76
2021/07/25 08:41:10;;;;;;;8.38;4.90;;;23.10;99.90;;;;;;5017401;28;20456;-76
2021/07/25 08:43:39;;;;;;;5.32;4.35;;;22.90;99.90;;;;;;5021422;28;20050;-76
2021/07/25 08:46:15;;;;;;;5.00;4.60;;;23.00;99.90;;;;;;5020144;28;20026;-76
2021/07/25 08:48:49;;;;;;;7.63;5.20;;;23.20;99.90;;;;;;5016534;28;20071;-76
2021/07/25 08:51:21;;;;;;;5.40;4.90;;;23.50;99.90;;;;;;5016754;28;20022;-77
2021/07/25 08:54:01;;;;;;;5.68;5.13;;;23.60;99.90;;;;;;5001167;28;20401;-75
2021/07/25 08:56:31;;;;;;;5.47;4.63;;;23.50;99.90;;;;;;5018985;28;20022;-76
2021/07/25 08:59:01;;;;;;;5.22;4.72;;;23.40;99.90;;;;;;5018061;28;20026;-77
2021/07/25 09:01:35;;;;;;;4.93;4.43;;;23.60;99.90;;;;;;5013659;28;20025;-74
2021/07/25 09:04:02;;;;;;;5.60;5.10;;;23.80;99.90;;;;;;4999371;28;20498;-75
2021/07/25 09:06:44;;;;;;;5.05;4.63;;;23.80;99.90;;;;;;4994742;28;20022;-76
2021/07/25 09:09:10;;;;;;;5.50;5.00;;;23.80;99.90;;;;;;4994965;28;20069;-76
2021/07/25 09:11:36;;;;;;;6.72;5.28;;;23.70;99.90;;;;;;5012403;28;20052;-76
2021/07/25 09:14:03;;;;;;;6.30;4.78;;;23.40;99.90;;;;;;5014224;28;20204;-75
2021/07/25 09:16:31;;;;;;;6.55;4.30;;;23.40;99.90;;;;;;4996365;28;20493;-76
2021/07/25 09:18:57;;;;;;;5.10;4.60;;;23.30;99.90;;;;;;4995510;28;20068;-75
2021/07/25 09:21:52;;;;;;;5.38;4.88;;;23.10;99.90;;;;;;5013029;28;20046;-76
2021/07/25 09:24:28;;;;;;;5.05;4.65;;;23.40;99.90;;;;;;5012900;28;20034;-77
2021/07/25 09:27:02;;;;;;;6.10;4.60;;;23.60;99.90;;;;;;5013443;28;20115;-77
2021/07/25 09:29:34;;;;;;;7.60;4.70;;;23.80;99.90;;;;;;4995882;28;20338;-74
2021/07/25 09:32:19;;;;;;;5.03;4.50;;;23.70;99.90;;;;;;5019359;28;20026;-75
2021/07/25 09:34:46;;;;;;;7.57;4.47;;;23.60;99.90;;;;;;5020146;28;20155;-75
2021/07/25 09:37:17;;;;;;;7.45;4.55;;;23.60;99.90;;;;;;5016434;28;20029;-77
2021/07/25 09:39:54;;;;;;;5.55;4.72;;;24.10;99.90;;;;;;5011965;28;20058;-76
2021/07/25 09:42:30;;;;;;;5.97;4.60;;;24.30;99.90;;;;;;4977023;28;20034;-75
2021/07/25 09:44:58;;;;;;;6.20;4.53;;;24.50;99.90;;;;;;4994106;28;20065;-76
2021/07/25 09:47:28;;;;;;;6.32;4.80;;;23.90;99.90;;;;;;4994630;28;20113;-75
2021/07/25 09:49:55;;;;;;;6.43;5.07;;;23.60;99.90;;;;;;4995004;28;20022;-77
2021/07/25 09:52:47;;;;;;;6.60;4.50;;;23.40;99.90;;;;;;4975729;28;20022;-77
2021/07/25 09:55:13;;;;;;;5.57;4.30;;;23.10;99.90;;;;;;4990413;28;20042;-77
2021/07/25 09:57:54;;;;;;;5.43;4.88;;;22.90;99.90;;;;;;4994556;28;20045;-77
2021/07/25 10:00:20;;;;;;;4.93;4.53;;;22.80;99.90;;;;;;4994280;28;20026;-78
2021/07/25 10:02:45;;;;;;;6.50;4.90;;;22.60;99.90;;;;;;5010150;28;20034;-77
2021/07/25 10:05:16;;;;;;;6.05;5.07;;;22.40;99.90;;;;;;5013642;28;20029;-77
2021/07/25 10:07:42;;;;;;;;;;;22.30;99.90;;;;;;4995722;28;20172;-77
2021/07/25 10:10:10;;;;;;;4.85;4.35;;;22.20;99.90;;;;;;4994364;28;19983;-74
2021/07/25 10:12:39;;;;;;;6.05;5.55;;;22.10;99.90;;;;;;5000657;28;20027;-73
2021/07/25 10:15:07;;;;;;;5.20;4.65;;;22.10;99.90;;;;;;4992703;28;20026;-73
2021/07/25 10:17:35;;;;;;;9.07;6.00;;;22.10;99.90;;;;;;4992498;28;20030;-74
2021/07/25 10:20:03;;;;;;;9.77;5.13;;;22.00;99.90;;;;;;4975764;28;20113;-74
2021/07/25 10:22:30;;;;;;;5.03;4.53;;;22.00;99.90;;;;;;5008633;28;20176;-74
2021/07/25 10:25:00;;;;;;;6.88;5.18;;;22.00;99.90;;;;;;5016247;28;20026;-75
2021/07/25 10:27:26;;;;;;;5.05;4.40;;;21.90;99.90;;;;;;5016871;28;20022;-74
2021/07/25 10:29:53;;;;;;;4.82;4.35;;;21.80;99.90;;;;;;5016382;28;20389;-75
2021/07/25 10:32:20;;;;;;;4.97;4.32;;;21.70;99.90;;;;;;5016343;28;20025;-75
2021/07/25 10:34:49;;;;;;;5.50;4.38;;;21.60;99.90;;;;;;5015446;28;20088;-74
2021/07/25 10:37:16;;;;;;;6.88;4.30;;;21.50;99.90;;;;;;5013855;28;20076;-75
2021/07/25 10:39:44;;;;;;;6.45;4.68;;;21.50;99.90;;;;;;5016165;28;20034;-74
2021/07/25 10:42:14;;;;;;;5.47;3.83;;;21.50;99.90;;;;;;5016575;28;20018;-74
2021/07/25 10:44:43;;;;;;;4.35;3.85;;;21.40;99.90;;;;;;4998616;28;20170;-73
2021/07/25 10:47:17;;;;;;;6.18;4.63;;;21.40;99.90;;;;;;5015272;28;20105;-73
2021/07/25 10:49:43;;;;;;;5.80;4.68;;;21.50;99.90;;;;;;5014857;28;20080;-74
2021/07/25 10:52:08;;;;;;;6.20;4.20;;;21.50;99.90;;;;;;5015848;28;20026;-74
2021/07/25 10:54:35;;;;;;;6.05;4.07;;;21.40;99.90;;;;;;5015269;28;20022;-74
2021/07/25 10:57:04;;;;;;;4.97;4.43;;;21.30;99.90;;;;;;5014280;28;20029;-74
2021/07/25 10:59:55;;;;;;;7.32;4.70;;;21.40;99.90;;;;;;5015687;28;20406;-75
2021/07/25 11:02:24;;;;;;;7.90;3.80;;;21.30;99.90;;;;;;5016143;28;20021;-77
2021/07/25 11:04:56;;;;;;;4.22;3.88;;;21.10;99.90;;;;;;4998637;28;20026;-75
2021/07/25 11:07:24;;;;;;;4.75;4.22;;;21.10;99.90;;;;;;5015874;28;20018;-76
2021/07/25 11:10:09;;;;;;;7.15;4.20;;;21.20;99.90;;;;;;5015785;28;20030;-76
2021/07/25 11:13:07;;;;;;;5.53;3.95;;;21.40;99.90;;;;;;5015823;28;20025;-76
2021/07/25 11:15:32;;;;;;;4.18;3.88;;;21.50;99.90;;;;;;5014911;28;20478;-75
2021/07/25 11:18:05;;;;;;;4.47;4.07;;;21.60;99.90;;;;;;4998783;28;20038;-75
2021/07/25 11:20:34;;;;;;;4.95;4.03;;;21.60;99.90;;;;;;4989988;28;20061;-75
2021/07/25 11:23:01;;;;;;;5.53;4.50;;;21.60;99.90;;;;;;5015051;28;20469;-76
2021/07/25 11:25:37;;;;;;;4.63;4.22;;;21.80;99.90;;;;;;4997770;28;20026;-75
2021/07/25 11:28:07;;;;;;;4.70;3.60;;;21.90;99.90;;;;;;5015685;28;20160;-74
2021/07/25 11:30:48;;;;;;;6.28;3.60;;;21.80;99.90;;;;;;5015331;28;20026;-74
2021/07/25 11:33:39;;;;;;;4.53;3.40;;;21.80;99.90;;;;;;5015077;28;20037;-75
2021/07/25 11:36:05;;;;;;;4.43;3.97;;;22.00;99.90;;;;;;5016362;28;20030;-75
2021/07/25 11:38:33;;;;;;;5.13;3.78;;;22.30;99.90;;;;;;5016852;28;20029;-76
2021/07/25 11:40:59;;;;;;;4.25;3.85;;;22.60;99.90;;;;;;5015565;28;20037;-75
2021/07/25 11:43:25;;;;;;;4.60;4.18;;;22.70;99.90;;;;;;4981983;28;20026;-76
2021/07/25 11:45:51;;;;;;;4.55;4.15;;;22.60;99.90;;;;;;5015262;28;20018;-74
2021/07/25 11:48:24;;;;;;;4.47;3.55;;;22.50;99.90;;;;;;5015888;28;20386;-75
2021/07/25 11:50:49;;;;;;;4.30;3.85;;;22.50;99.90;;;;;;4998013;28;20677;-76
2021/07/25 11:53:19;;;;;;;4.18;3.78;;;22.40;99.90;;;;;;5036462;28;20014;-75
2021/07/25 11:55:45;;;;;;;6.70;3.88;;;22.30;99.90;;;;;;5026268;28;20026;-74
2021/07/25 11:58:11;;;;;;;6.57;4.15;;;22.40;99.90;;;;;;5000725;28;20026;-75
2021/07/25 12:00:37;;;;;;;5.90;4.50;;;22.60;99.90;;;;;;5014945;28;20022;-75
2021/07/25 12:03:03;;;;;;;4.43;4.03;;;22.50;99.90;;;;;;5010192;28;20022;-73
2021/07/25 12:05:29;;;;;;;6.70;4.60;;;22.50;99.90;;;;;;5014212;28;20048;-75
2021/07/25 12:07:54;;;;;;;5.22;4.75;;;22.60;99.90;;;;;;4996883;28;20029;-76
2021/07/25 12:10:31;;;;;;;4.80;4.32;;;22.60;99.90;;;;;;5014321;28;20033;-74
2021/07/25 12:13:08;;;;;;;6.30;4.50;;;22.50;99.90;;;;;;4996891;28;20118;-76
2021/07/25 12:15:35;;;;;;;6.63;5.07;;;22.50;99.90;;;;;;4998526;28;20026;-75
2021/07/25 12:18:00;;;;;;;5.13;4.72;;;22.50;99.90;;;;;;5015142;28;20113;-74
2021/07/25 12:20:31;;;;;;;5.05;4.53;;;22.40;99.90;;;;;;5014118;28;20448;-75
2021/07/25 12:23:00;;;;;;;5.30;4.80;;;22.40;99.90;;;;;;4997039;28;20096;-77
2021/07/25 12:25:30;;;;;;;5.35;4.85;;;22.50;99.90;;;;;;5006138;28;20122;-74
2021/07/25 12:28:07;;;;;;;6.32;5.18;;;22.30;99.90;;;;;;5015198;28;20030;-76
2021/07/25 12:30:48;;;;;;;5.18;4.68;;;22.10;99.90;;;;;;5015028;28;20030;-73
2021/07/25 12:33:24;;;;;;;7.55;5.10;;;21.90;99.90;;;;;;4982220;28;20069;-80
2021/07/25 12:35:50;;;;;;;5.50;4.82;;;21.70;99.90;;;;;;5015641;28;20022;-73
2021/07/25 12:38:18;;;;;;;6.13;5.32;;;21.50;99.90;;;;;;5019147;28;20094;-76
2021/07/25 12:40:51;;;;;;;7.03;5.50;;;21.60;99.90;;;;;;5009362;28;20026;-79
2021/07/25 12:43:24;;;;;;;7.00;6.40;;;21.60;99.90;;;;;;5015079;28;20025;-74
2021/07/25 12:45:51;;;;;;;5.57;4.63;;;21.70;99.90;;;;;;4996156;28;20053;-76
2021/07/25 12:48:20;;;;;;;5.20;4.53;;;21.70;99.90;;;;;;5014408;28;20021;-74
2021/07/25 12:50:51;;;;;;;6.53;5.32;;;21.80;99.90;;;;;;5013194;28;20030;-73